Data for 11/15/2007

Time Sea-Level Adjusted Pressure Absolute Pressure Temperature Relative Humidity Dew Point   
(mb) (inHg) (mb) (inHg) (C) (F) (%) (C) (F)
00:05 1021 30.15 850 25.1 -2 28.4 52 -10.7 12.8
00:10 1021 30.15 850 25.1 -1.9 28.6 53 -10.3 13.4
00:15 1021 30.15 850 25.1 -2 28.4 52 -10.7 12.8
00:20 1021 30.15 850 25.1 -1.9 28.6 51 -10.7 12.8
00:25 1021 30.15 850 25.1 -1.9 28.6 52 -10.5 13.1
00:30 1021 30.15 850 25.1 -2.1 28.2 55 -10 14
00:35 1021 30.15 850 25.1 -2.3 27.8 53 -10.6 13
00:40 1021 30.15 850 25.1 -2 28.5 51 -10.8 12.6
00:45 1020 30.12 850 25.1 -1.6 29.1 47 -11.4 11.5
00:50 1020 30.12 849 25.07 -1.3 29.6 50 -10.4 13.3
00:55 1020 30.12 849 25.07 -1.5 29.4 51 -10.3 13.4
01:00 1020 30.12 849 25.07 -1.5 29.2 53 -9.9 14.1
01:05 1020 30.12 849 25.07 -1.9 28.5 56 -9.7 14.6
01:10 1020 30.12 850 25.1 -2.3 27.9 55 -10.1 13.9
01:15 1020 30.12 849 25.07 -2.4 27.6 57 -9.8 14.4
01:20 1020 30.12 850 25.1 -2.6 27.4 54 -10.6 12.9
01:25 1020 30.12 850 25.1 -2.9 26.9 56 -10.5 13.1
01:30 1020 30.12 850 25.1 -3 26.6 56 -10.6 12.9
01:35 1020 30.12 849 25.07 -3 26.6 54 -11 12.3
01:40 1020 30.12 849 25.07 -2.8 26.9 45 -13.2 8.3
01:45 1020 30.12 849 25.07 -2.6 27.4 50 -11.6 11.1
01:50 1020 30.12 849 25.07 -2.5 27.5 54 -10.5 13.2
01:55 1020 30.12 849 25.07 -2.6 27.4 54 -10.7 12.8
02:00 1020 30.12 849 25.07 -2.6 27.3 55 -10.5 13.1
02:05 1020 30.12 849 25.07 -2.7 27.1 54 -10.8 12.6
02:10 1020 30.12 849 25.07 -2.9 26.8 51 -11.6 11.1
02:15 1020 30.12 849 25.07 -2.8 27 48 -12.5 9.6
02:20 1020 30.12 849 25.07 -2.5 27.5 52 -11 12.2
02:25 1020 30.12 849 25.07 -2.6 27.3 53 -11 12.3
02:30 1020 30.12 849 25.07 -2.7 27.1 52 -11.2 11.8
02:35 1020 30.12 849 25.07 -2.7 27.1 55 -10.5 13
02:40 1020 30.12 849 25.07 -2.7 27.2 55 -10.6 12.9
02:45 1020 30.12 849 25.07 -2.5 27.5 55 -10.4 13.4
02:50 1020 30.12 849 25.07 -2.4 27.6 54 -10.4 13.2
02:55 1020 30.12 849 25.07 -2.4 27.7 56 -9.9 14.1
03:00 1020 30.12 849 25.07 -2.3 27.9 55 -10.2 13.6
03:05 1020 30.12 849 25.07 -2.1 28.2 54 -10.2 13.6
03:10 1020 30.12 849 25.07 -2.1 28.2 54 -10.3 13.4
03:15 1020 30.12 849 25.07 -2.1 28.2 52 -10.6 12.9
03:20 1020 30.12 849 25.07 -1.9 28.6 56 -9.6 14.8
03:25 1020 30.12 849 25.07 -1.8 28.7 54 -9.9 14.2
03:30 1020 30.12 849 25.07 -2 28.4 51 -10.8 12.5
03:35 1020 30.12 849 25.07 -2 28.4 51 -10.9 12.4
03:40 1020 30.12 849 25.07 -2 28.4 51 -10.7 12.7
03:45 1020 30.12 849 25.07 -1.6 29.1 49 -11.1 12
03:50 1020 30.12 849 25.07 -1.6 29.1 62 -8 17.6
03:55 1020 30.12 849 25.07 -2 28.3 52 -10.5 13
04:00 1020 30.12 849 25.07 -1.4 29.4 48 -11.2 11.8
04:05 1020 30.12 849 25.07 -0.9 30.3 57 -8.4 17
04:10 1020 30.12 849 25.07 -1.2 29.9 54 -9.3 15.3
04:15 1020 30.12 849 25.07 -1.7 29 54 -9.8 14.4
04:20 1020 30.12 849 25.07 -1.6 29.1 53 -9.9 14.1
04:25 1020 30.12 849 25.07 -1.9 28.5 59 -9 15.8
04:30 1020 30.12 849 25.07 -2.4 27.7 61 -8.9 15.9
04:35 1019 30.09 849 25.07 -2.5 27.5 61 -9.1 15.6
04:40 1019 30.09 849 25.07 -2.1 28.2 58 -9.3 15.2
04:45 1019 30.09 849 25.07 -1.8 28.7 60 -8.6 16.6
04:50 1019 30.09 849 25.07 -1.8 28.7 66 -7.3 18.8
04:55 1019 30.09 848 25.04 -2.2 28 68 -7.4 18.7
05:00 1019 30.09 848 25.04 -2.3 27.8 70 -7 19.3
05:05 1019 30.09 848 25.04 -2.3 27.8 69 -7.4 18.7
05:10 1019 30.09 848 25.04 -2.1 28.2 70 -7 19.5
05:15 1019 30.09 848 25.04 -2.2 28 66 -7.6 18.3
05:20 1019 30.09 848 25.04 -1.8 28.8 64 -7.8 18
05:25 1019 30.09 848 25.04 -1.8 28.8 61 -8.4 16.9
05:30 1019 30.09 848 25.04 -1.8 28.7 62 -8.1 17.4
05:35 1019 30.09 848 25.04 -1.9 28.5 63 -8.1 17.4
05:40 1019 30.09 848 25.04 -1.8 28.8 63 -8 17.6
05:45 1019 30.09 848 25.04 -1.7 28.9 64 -7.7 18.1
05:50 1019 30.09 848 25.04 -1.6 29 63 -7.8 17.9
05:55 1018 30.06 848 25.04 -1.5 29.3 62 -7.9 17.8
06:00 1018 30.06 848 25.04 -1.6 29.1 61 -8.1 17.5
06:05 1018 30.06 848 25.04 -1.5 29.2 57 -8.9 16
06:10 1018 30.06 848 25.04 -1.2 29.8 55 -9 15.7
06:15 1018 30.06 847 25.01 -1 30.1 57 -8.6 16.5
06:20 1018 30.06 847 25.01 -1.2 29.9 60 -8.1 17.4
06:25 1018 30.06 847 25.01 -1.4 29.4 61 -8.1 17.5
06:30 1018 30.06 847 25.01 -1.4 29.4 60 -8.2 17.2
06:35 1017 30.03 847 25.01 -1.4 29.5 57 -8.9 16
06:40 1017 30.03 846 24.98 -1 30.2 57 -8.6 16.5
06:45 1017 30.03 846 24.98 -0.8 30.6 57 -8.3 17
06:50 1017 30.03 846 24.98 -0.9 30.5 60 -7.7 18.2
06:55 1017 30.03 846 24.98 -1.6 29.1 61 -8.3 17.1
07:00 1017 30.03 846 24.98 -1.8 28.7 54 -9.9 14.1
07:05 1017 30.03 846 24.98 -1.3 29.6 51 -10.2 13.6
07:10 1017 30.03 846 24.98 -0.8 30.6 47 -10.6 12.9
07:15 1017 30.03 846 24.98 -0.3 31.4 47 -10.2 13.6
07:20 1017 30.03 846 24.98 -0.2 31.7 45 -10.7 12.7
07:25 1017 30.03 846 24.98 0.1 32.2 45 -10.6 12.9
07:30 1017 30.03 846 24.98 0.4 32.7 47 -9.7 14.5
07:35 1017 30.03 846 24.98 0.1 32.3 46 -10 13.9
07:40 1017 30.03 846 24.98 -0.1 31.7 49 -9.6 14.7
07:45 1017 30.03 846 24.98 -0.5 31.1 46 -10.7 12.8
07:50 1016 30 846 24.98 -0.4 31.3 44 -11.1 12
07:55 1016 30 846 24.98 -0.2 31.6 44 -11.2 11.9
08:00 1017 30.03 846 24.98 0 32.1 42 -11.3 11.7
08:05 1017 30.03 846 24.98 0.4 32.7 45 -10.3 13.5
08:10 1017 30.03 846 24.98 0.7 33.2 46 -9.7 14.5
08:15 1017 30.03 846 24.98 0.2 32.3 56 -7.5 18.5
08:20 1017 30.03 846 24.98 -0.6 30.9 58 -7.8 17.9
08:25 1017 30.03 846 24.98 -0.8 30.6 56 -8.6 16.5
08:30 1017 30.03 846 24.98 -0.8 30.6 57 -8.3 17.1
08:35 1017 30.03 846 24.98 -0.9 30.4 59 -8 17.6
08:40 1017 30.03 846 24.98 -0.9 30.4 58 -8.2 17.3
08:45 1017 30.03 846 24.98 -1.1 30.1 59 -8 17.5
08:50 1017 30.03 846 24.98 -0.9 30.3 58 -8.2 17.3
08:55 1017 30.03 846 24.98 -0.9 30.3 56 -8.5 16.6
09:00 1017 30.03 846 24.98 -0.6 31 56 -8.3 17.1
09:05 1017 30.03 846 24.98 0.1 32.2 54 -8.1 17.4
09:10 1017 30.03 846 24.98 0 32 56 -7.8 18
09:15 1017 30.03 846 24.98 0.2 32.3 55 -7.8 17.9
09:20 1017 30.03 846 24.98 -0 32 58 -7.2 19
09:25 1017 30.03 846 24.98 0.1 32.2 57 -7.5 18.5
09:30 1017 30.03 846 24.98 -0.2 31.7 57 -7.8 18
09:35 1017 30.03 846 24.98 -0.4 31.3 57 -7.8 17.9
09:40 1017 30.03 846 24.98 -0.5 31 59 -7.7 18.2
09:45 1017 30.03 846 24.98 -0.5 31.2 61 -7.1 19.2
09:50 1017 30.03 846 24.98 -0.3 31.5 60 -7 19.3
09:55 1017 30.03 846 24.98 0 32.1 58 -7.2 19
10:00 1016 30 846 24.98 0.2 32.4 58 -7.1 19.3
10:05 1016 30 846 24.98 0.4 32.7 58 -7 19.3
10:10 1017 30.03 846 24.98 1 33.7 53 -7.5 18.5
10:15 1017 30.03 846 24.98 1.5 34.8 52 -7.4 18.7
10:20 1017 30.03 846 24.98 2.1 35.8 51 -7 19.3
10:25 1017 30.03 846 24.98 2.7 36.8 50 -6.7 20
10:30 1016 30 846 24.98 3.2 37.7 49 -6.6 20.1
10:35 1016 30 846 24.98 3.1 37.6 50 -6.3 20.7
10:40 1016 30 846 24.98 3.1 37.5 51 -6 21.2
10:45 1016 30 845 24.95 2.5 36.5 55 -5.8 21.6
10:50 1016 30 845 24.95 2.4 36.3 56 -5.6 21.9
10:55 1016 30 845 24.95 2.4 36.3 56 -5.6 21.9
11:00 1016 30 845 24.95 2.7 36.8 49 -6.9 19.6
11:05 1016 30 845 24.95 3.1 37.6 45 -7.7 18.1
11:10 1016 30 845 24.95 3.8 38.8 39 -9 15.8
11:15 1016 30 845 24.95 4.4 40 40 -7.9 17.8
11:20 1016 30 845 24.95 4.4 39.8 37 -9.2 15.4
11:25 1016 30 845 24.95 5.3 41.5 35 -9.1 15.7
11:30 1016 30 845 24.95 6.3 43.4 33 -8.7 16.3
11:35 1016 30 845 24.95 7.3 45.2 27 -10.3 13.4
11:40 1016 30 845 24.95 7.6 45.6 33 -7.8 18
11:45 1016 30 845 24.95 7.6 45.7 32 -8.1 17.4
11:50 1016 30 845 24.95 6.7 44 37 -7.2 19.1
11:55 1015 29.97 845 24.95 6.5 43.7 34 -8.4 16.9
12:00 1015 29.97 845 24.95 6.6 43.8 38 -6.7 20
12:05 1015 29.97 845 24.95 6.7 44 33 -8.5 16.6
12:10 1015 29.97 845 24.95 6.1 43 39 -6.8 19.8
12:15 1015 29.97 845 24.95 5.6 42.1 40 -7 19.3
12:20 1015 29.97 845 24.95 5.8 42.5 36 -8 17.7
12:25 1015 29.97 844 24.92 6.1 42.9 35 -8.2 17.2
12:30 1015 29.97 844 24.92 6.6 43.8 33 -8.6 16.5
12:35 1015 29.97 844 24.92 6.6 43.8 33 -8.4 16.9
12:40 1015 29.97 844 24.92 6.3 43.4 33 -8.8 16.1
12:45 1015 29.97 844 24.92 6.2 43.2 32 -9.3 15.3
12:50 1015 29.97 844 24.92 6.5 43.7 34 -8.5 16.8
12:55 1015 29.97 844 24.92 6.1 43 39 -7 19.4
13:00 1015 29.97 844 24.92 6.2 43.1 35 -8.2 17.2
13:05 1015 29.97 844 24.92 6.1 43.1 33 -8.8 16.1
13:10 1015 29.97 844 24.92 6.5 43.7 30 -9.8 14.3
13:15 1015 29.97 844 24.92 7.1 44.8 28 -10.1 13.8
13:20 1015 29.97 844 24.92 7.8 46 26 -10.5 13.1
13:25 1015 29.97 844 24.92 8.1 46.5 25 -11 12.3
13:30 1015 29.97 844 24.92 7.4 45.3 28 -9.9 14.2
13:35 1015 29.97 844 24.92 6.9 44.5 26 -11.2 11.9
13:40 1015 29.97 844 24.92 7 44.5 29 -9.9 14.1
13:45 1014 29.94 844 24.92 7 44.7 28 -10.5 13.2
13:50 1014 29.94 844 24.92 7.1 44.7 29 -9.9 14.1
13:55 1014 29.94 843 24.89 7 44.7 33 -8.2 17.3
14:00 1014 29.94 843 24.89 7 44.6 31 -9.2 15.4
14:05 1014 29.94 843 24.89 7.4 45.3 26 -11.1 12
14:10 1014 29.94 843 24.89 7.5 45.6 31 -8.5 16.6
14:15 1014 29.94 843 24.89 7 44.6 33 -8.4 17
14:20 1014 29.94 843 24.89 7.1 44.8 41 -5.3 22.5
14:25 1014 29.94 843 24.89 7.1 44.8 35 -7.4 18.7
14:30 1014 29.94 843 24.89 7.6 45.8 33 -7.7 18.1
14:35 1014 29.94 843 24.89 8.5 47.3 31 -7.8 17.9
14:40 1014 29.94 843 24.89 9.4 48.8 29 -7.7 18.2
14:45 1014 29.94 843 24.89 9.1 48.4 34 -5.8 21.6
14:50 1014 29.94 843 24.89 8.5 47.3 41 -4 24.8
14:55 1014 29.94 843 24.89 8.2 46.8 40 -4.7 23.5
15:00 1014 29.94 843 24.89 8 46.5 34 -6.8 19.8
15:05 1014 29.94 843 24.89 9 48.2 37 -5 23
15:10 1014 29.94 843 24.89 9.4 48.9 36 -4.9 23.1
15:15 1014 29.94 843 24.89 9.6 49.3 39 -3.7 25.3
15:20 1013 29.91 843 24.89 9 48.2 37 -4.8 23.4
15:25 1013 29.91 843 24.89 8.4 47 39 -4.7 23.6
15:30 1013 29.91 843 24.89 8 46.3 42 -4.1 24.6
15:35 1013 29.91 843 24.89 7.9 46.3 45 -3.3 26
15:40 1014 29.94 843 24.89 8.2 46.7 45 -3.1 26.4
15:45 1014 29.94 843 24.89 9 48.2 42 -3.3 26
15:50 1014 29.94 843 24.89 9.1 48.3 42 -3.1 26.4
15:55 1014 29.94 843 24.89 9 48.2 44 -2.7 27.2
16:00 1014 29.94 843 24.89 8.5 47.3 41 -4 24.7
16:05 1014 29.94 843 24.89 8.1 46.5 41 -4.4 24
16:10 1014 29.94 843 24.89 8 46.4 38 -5.6 21.9
16:15 1014 29.94 843 24.89 9.1 48.3 32 -6.6 20.2
16:20 1014 29.94 843 24.89 9.7 49.5 32 -6.1 20.9
16:25 1014 29.94 843 24.89 9.8 49.6 32 -6 21.1
16:30 1014 29.94 843 24.89 9.4 48.8 35 -5.2 22.7
16:35 1014 29.94 843 24.89 9.4 49 35 -5.3 22.5
16:40 1014 29.94 843 24.89 9.5 49 36 -4.8 23.3
16:45 1014 29.94 843 24.89 9.6 49.2 35 -5.3 22.5
16:50 1014 29.94 843 24.89 9.3 48.8 36 -5 23
16:55 1014 29.94 843 24.89 9.1 48.4 36 -5 22.9
17:00 1014 29.94 843 24.89 8.9 48 37 -4.8 23.3
17:05 1014 29.94 843 24.89 8.8 47.8 39 -4.3 24.3
17:10 1014 29.94 843 24.89 8.7 47.6 39 -4.4 24.1
17:15 1014 29.94 843 24.89 9 48.2 37 -5 23
17:20 1014 29.94 843 24.89 9.4 48.9 35 -5.4 22.3
17:25 1014 29.94 843 24.89 9.6 49.2 35 -5 23
17:30 1014 29.94 843 24.89 9.5 49 35 -5.2 22.7
17:35 1014 29.94 843 24.89 9.4 48.9 35 -5.4 22.4
17:40 1014 29.94 843 24.89 9.4 49 36 -5 23
17:45 1014 29.94 843 24.89 9.4 49 36 -5 22.9
17:50 1014 29.94 843 24.89 9.4 48.8 40 -3.6 25.6
17:55 1014 29.94 843 24.89 8.4 47.2 43 -3.4 25.8
18:00 1014 29.94 843 24.89 7.8 46 44 -3.7 25.4
18:05 1014 29.94 843 24.89 8 46.4 42 -4.2 24.5
18:10 1014 29.94 843 24.89 8.6 47.4 43 -3.3 26.1
18:15 1014 29.94 843 24.89 8.3 47 41 -4 24.8
18:20 1014 29.94 843 24.89 8.5 47.3 42 -3.5 25.6
18:25 1014 29.94 843 24.89 8.6 47.5 41 -3.8 25.1
18:30 1014 29.94 843 24.89 8.8 47.8 42 -3.4 25.9
18:35 1014 29.94 843 24.89 8.9 48.1 39 -4.3 24.2
18:40 1014 29.94 843 24.89 9 48.2 38 -4.5 24
18:45 1014 29.94 843 24.89 8.7 47.7 41 -3.9 25
18:50 1014 29.94 843 24.89 8.5 47.3 40 -4.3 24.3
18:55 1014 29.94 843 24.89 8.7 47.6 39 -4.6 23.7
19:00 1014 29.94 843 24.89 8.6 47.5 40 -4.2 24.5
19:05 1014 29.94 843 24.89 8.7 47.6 35 -5.8 21.6
19:10 1014 29.94 843 24.89 8.8 47.9 41 -3.7 25.3
19:15 1014 29.94 843 24.89 8.1 46.6 46 -2.9 26.8
19:20 1014 29.94 843 24.89 7.4 45.4 46 -3.4 25.9
19:25 1014 29.94 843 24.89 7.5 45.5 42 -4.4 24
19:30 1014 29.94 843 24.89 8.1 46.5 40 -4.6 23.7
19:35 1014 29.94 843 24.89 8.4 47.2 37 -5.5 22.1
19:40 1014 29.94 843 24.89 8.9 47.9 37 -4.9 23.2
19:45 1014 29.94 843 24.89 9 48.1 35 -5.6 21.9
19:50 1014 29.94 843 24.89 8.9 48 38 -4.6 23.7
19:55 1014 29.94 843 24.89 8.7 47.6 39 -4.6 23.7
20:00 1014 29.94 843 24.89 8.4 47.1 38 -5 23
20:05 1014 29.94 843 24.89 7.9 46.2 42 -4.3 24.3
20:10 1014 29.94 843 24.89 7.4 45.3 42 -4.5 23.8
20:15 1014 29.94 843 24.89 7.2 45 43 -4.4 24.1
20:20 1014 29.94 843 24.89 7.2 45 42 -4.7 23.6
20:25 1014 29.94 843 24.89 7.7 45.8 38 -5.7 21.7
20:30 1014 29.94 843 24.89 8.3 46.9 34 -6.8 19.8
20:35 1014 29.94 843 24.89 9 48.2 31 -7.1 19.3
20:40 1014 29.94 843 24.89 9.1 48.4 34 -5.9 21.4
20:45 1014 29.94 843 24.89 8.8 47.8 35 -5.9 21.3
20:50 1014 29.94 843 24.89 8.6 47.5 35 -6 21.2
20:55 1014 29.94 843 24.89 8.5 47.4 35 -6 21.2
21:00 1014 29.94 843 24.89 8.6 47.4 34 -6.4 20.5
21:05 1014 29.94 843 24.89 8.4 47.1 35 -6.2 20.9
21:10 1014 29.94 843 24.89 8.1 46.5 38 -5.4 22.3
21:15 1014 29.94 843 24.89 7.8 46.1 36 -6.4 20.5
21:20 1014 29.94 843 24.89 8.1 46.7 37 -5.7 21.7
21:25 1014 29.94 843 24.89 7.8 46 36 -6.4 20.6
21:30 1014 29.94 843 24.89 7.6 45.7 37 -6 21.2
21:35 1014 29.94 843 24.89 7.9 46.3 35 -6.6 20.1
21:40 1014 29.94 843 24.89 8.3 46.9 36 -6 21.2
21:45 1014 29.94 843 24.89 8.5 47.2 35 -6.1 21
21:50 1014 29.94 843 24.89 8.6 47.4 36 -5.7 21.7
21:55 1014 29.94 843 24.89 8.2 46.8 36 -6 21.3
22:00 1014 29.94 843 24.89 8.2 46.7 36 -6.1 21
22:05 1014 29.94 843 24.89 8 46.4 35 -6.5 20.4
22:10 1014 29.94 843 24.89 7.8 46 38 -5.8 21.6
22:15 1014 29.94 843 24.89 7.4 45.3 39 -5.7 21.8
22:20 1014 29.94 843 24.89 7.2 45 39 -5.9 21.4
22:25 1014 29.94 843 24.89 7.5 45.4 37 -6.2 20.9
22:30 1014 29.94 843 24.89 7.8 46.1 37 -6 21.1
22:35 1014 29.94 843 24.89 7.9 46.2 35 -6.4 20.4
22:40 1014 29.94 843 24.89 8.2 46.8 36 -5.8 21.6
22:45 1014 29.94 843 24.89 8.1 46.5 37 -5.6 21.9
22:50 1014 29.94 843 24.89 7.9 46.2 38 -5.5 22
22:55 1014 29.94 843 24.89 7.8 46 40 -5 23
23:00 1014 29.94 843 24.89 7.4 45.3 42 -4.7 23.5
23:05 1014 29.94 843 24.89 7.1 44.8 43 -4.5 23.9
23:10 1014 29.94 843 24.89 7.3 45.2 40 -5.4 22.2
23:15 1014 29.94 843 24.89 7.8 46 41 -4.8 23.4
23:20 1014 29.94 843 24.89 7.7 45.8 40 -5 23
23:25 1014 29.94 843 24.89 7.7 45.8 41 -4.7 23.5
23:30 1014 29.94 843 24.89 7.7 45.8 42 -4.5 23.8
23:35 1013 29.91 843 24.89 7.8 46 41 -4.6 23.7
23:40 1013 29.91 843 24.89 8 46.3 40 -4.8 23.4
23:45 1013 29.91 843 24.89 8.3 47 38 -5 23
23:50 1013 29.91 843 24.89 8.7 47.6 38 -4.9 23.2
23:55 1013 29.91 843 24.89 8.8 47.8 37 -5.2 22.6
24:00 1013 29.91 843 24.89 8.9 48 38 -4.5 23.9